Bayamo — PCMA — position and weather

sailwx.info

Track history (hours):
 
Tides and Currents Weather Stations Pressure Air Temp Water Temp Dewpoint Dewpoint Depression Visibility Wind Speed Wind Dir Waves Ship Positions

Bayamo

Last reported at 2018-Jun-18 22:16 UTC. Time now 2018-Jun-19 02:58 UTC.
Position N 51°19' E 004°18'.

Length 88 m; draft 4.4 m.

Type: Ship (hazmat cat D). MMSI: 245669000.

Date/timePositionNaut miles runAvg speedWind from/ knotsBaromVisibWave heightAir tempDewpointWater temp
2018-Jun-18 22:16N 51°19' E 004°18'7 3.2
2018-Jun-18 20:06N 51°22' E 004°09'1 9.9
2018-Jun-18 20:00N 51°22' E 004°07'6 8.6
2018-Jun-18 19:17N 51°26' E 003°59'3 9.3
2018-Jun-18 18:58N 51°24' E 003°57'5 9.8
2018-Jun-18 18:31N 51°21' E 003°52'5 9.7
2018-Jun-18 18:01N 51°22' E 003°44'4 8.0
2018-Jun-18 17:30N 51°26' E 003°41'4 7.9
2018-Jun-18 16:59N 51°25' E 003°35'5 9.2
2018-Jun-18 16:30N 51°25' E 003°28'511.3
2018-Jun-18 16:00N 51°24' E 003°19'1113.6
2018-Jun-18 15:12N 51°24' E 003°01'314.0
2018-Jun-18 15:00N 51°23' E 002°57'710.2
2018-Jun-18 14:17N 51°21' E 002°46'2 6.6
2018-Jun-18 14:00N 51°20' E 002°43'3 6.2
2018-Jun-18 13:31N 51°17' E 002°41'5 9.4
2018-Jun-18 13:00N 51°13' E 002°38'510.7
2018-Jun-18 12:30N 51°09' E 002°33'5 9.5
2018-Jun-18 12:00N 51°05' E 002°29'5 5.0
2018-Jun-18 10:58N 51°03' E 002°21'3 7.1
2018-Jun-18 10:29N 51°02' E 002°16'0 0.0
2018-Jun-17 14:15N 51°02' E 002°16'0 1.0
2018-Jun-17 14:00N 51°02' E 002°16'4 7.1
2018-Jun-17 13:29N 51°03' E 002°21'1 1.7
2018-Jun-17 13:00N 51°04' E 002°21'713.1
2018-Jun-17 12:30N 51°03' E 002°11'712.5
2018-Jun-17 11:58N 51°02' E 002°00'511.3
2018-Jun-17 11:30N 51°02' E 001°52'5 9.9
2018-Jun-17 11:00N 51°04' E 001°44'612.3
2018-Jun-17 10:31N 51°09' E 001°40'713.6
2018-Jun-17 10:01N 51°16' E 001°39'714.9
2018-Jun-17 09:30N 51°23' E 001°43'713.1
2018-Jun-17 09:00N 51°30' E 001°45'612.5
2018-Jun-17 08:30N 51°36' E 001°45'1011.9
2018-Jun-17 07:37N 51°47' E 001°44'211.3
2018-Jun-17 07:27N 51°48' E 001°44'510.9
2018-Jun-17 07:00N 51°53' E 001°44'510.1
2018-Jun-17 06:30N 51°58' E 001°45'5 9.5
2018-Jun-17 06:00N 52°03' E 001°47'5 9.3
2018-Jun-17 05:30N 52°07' E 001°48'41 9.2
2018-Jun-17 01:04N 52°48' E 001°50'112.4
2018-Jun-17 01:00N 52°49' E 001°49'612.3
2018-Jun-17 00:31N 52°52' E 001°40'612.7
2018-Jun-17 00:01N 52°57' E 001°32'612.7
2018-Jun-16 23:31N 53°02' E 001°27'713.2
2018-Jun-16 23:00N 53°08' E 001°22'7613.5
2018-Jun-16 17:21N 54°09' E 000°05'513.8
2018-Jun-16 16:58N 54°14' W 000°00'613.4
2018-Jun-16 16:30N 54°18' W 000°07'613.1
2018-Jun-16 16:01N 54°23' W 000°14'713.0
2018-Jun-16 15:30N 54°28' W 000°21'  
2018-Jun-13 18:10N 54°28' W 000°15'211.3
2018-Jun-13 18:01N 54°27' W 000°13'611.1
2018-Jun-13 17:30N 54°22' W 000°07'510.6
2018-Jun-13 17:00N 54°18' W 000°02'610.6
2018-Jun-13 16:24N 54°13' E 000°05'8311.2
2018-Jun-13 09:01N 53°05' E 001°25'110.4
2018-Jun-13 08:55N 53°04' E 001°25'4 9.9
2018-Jun-13 08:29N 53°00' E 001°29'4 9.2
2018-Jun-13 08:00N 52°57' E 001°34'4 8.6
2018-Jun-13 07:30N 52°54' E 001°39'4 8.2
2018-Jun-13 06:59N 52°52' E 001°45'41 9.7
2018-Jun-13 02:46N 52°11' E 001°56'312.9
2018-Jun-13 02:30N 52°08' E 001°54'713.2
2018-Jun-13 02:01N 52°02' E 001°51'713.3
2018-Jun-13 01:30N 51°55' E 001°49'712.8
2018-Jun-13 00:59N 51°49' E 001°49'2311.9
2018-Jun-12 23:05N 51°26' E 001°47'111.9
2018-Jun-12 23:00N 51°25' E 001°46'611.9
2018-Jun-12 22:30N 51°19' E 001°44'611.8
2018-Jun-12 22:00N 51°14' E 001°40'611.1
2018-Jun-12 21:30N 51°10' E 001°35'510.8
2018-Jun-12 21:00N 51°06' E 001°40'5 9.5
2018-Jun-12 20:27N 51°03' E 001°47'5 9.7
2018-Jun-12 19:59N 51°02' E 001°55'713.6
2018-Jun-12 19:29N 51°03' E 002°05'913.7
2018-Jun-12 18:49N 51°04' E 002°19'2 3.6
2018-Jun-12 18:24N 51°03' E 002°21'0 0.4
2018-Jun-12 17:59N 51°03' E 002°21'3 0.2
2018-Jun-11 22:29N 51°02' E 002°16'4 4.0
2018-Jun-11 21:35N 51°03' E 002°21'1 8.0
2018-Jun-11 21:26N 51°04' E 002°23'410.0
2018-Jun-11 20:59N 51°06' E 002°29'3 6.6
2018-Jun-11 20:27N 51°08' E 002°33'510.1
2018-Jun-11 20:00N 51°12' E 002°37'712.4
2018-Jun-11 19:27N 51°18' E 002°42'711.3
2018-Jun-11 18:49N 51°25' E 002°46'413.2
2018-Jun-11 18:30N 51°26' E 002°52'913.5
2018-Jun-11 17:49N 51°31' E 003°05'413.4
2018-Jun-11 17:29N 51°35' E 003°10'713.1
2018-Jun-11 17:00N 51°41' E 003°11'612.7
2018-Jun-11 16:30N 51°47' E 003°15'2010.1
2018-Jun-11 14:28N 52°04' E 003°34'510.9
2018-Jun-11 13:59N 52°04' E 003°43'510.7
2018-Jun-11 13:30N 52°03' E 003°51'5 9.7
2018-Jun-11 13:00N 52°01' E 003°59'611.6
2018-Jun-11 12:30N 51°58' E 004°07'3 6.1
2018-Jun-11 12:01N 51°57' E 004°11'0 0.0
2018-Jun-11 02:55N 51°57' E 004°11'0 0.1
2018-Jun-11 02:30N 51°57' E 004°11'2 4.1
2018-Jun-11 02:01N 51°58' E 004°08'510.5
2018-Jun-11 01:30N 51°60' E 004°00'510.2
2018-Jun-11 00:58N 52°00' E 003°51'4 7.5
2018-Jun-11 00:30N 52°03' E 003°47'610.7
2018-Jun-10 23:58N 52°08' E 003°46'510.5
2018-Jun-10 23:28N 52°13' E 003°47'38011.7
2018-Jun-09 14:59N 58°30' E 005°11'611.9
2018-Jun-09 14:30N 58°36' E 005°12'612.0
2018-Jun-09 14:01N 58°42' E 005°13'611.9
2018-Jun-09 13:30N 58°48' E 005°15'611.8
2018-Jun-09 13:00N 58°53' E 005°16'611.3
2018-Jun-09 12:30N 58°59' E 005°18'510.9
2018-Jun-09 12:00N 59°04' E 005°20'510.1
2018-Jun-09 11:30N 59°08' E 005°27'5 9.8
2018-Jun-09 11:00N 59°12' E 005°32'5 7.7
2018-Jun-09 10:25N 59°16' E 005°30'0 0.0
2018-Jun-09 09:58N 59°16' E 005°30'0 0.0
2018-Jun-09 09:25N 59°16' E 005°30'0 0.0
2018-Jun-09 08:58N 59°16' E 005°30'0 0.0
2018-Jun-09 08:22N 59°16' E 005°30'0 0.0
2018-Jun-09 07:49N 59°16' E 005°30'0 0.0
2018-Jun-09 07:25N 59°16' E 005°30'0 0.0
2018-Jun-09 06:55N 59°16' E 005°30'0 0.0
2018-Jun-09 06:28N 59°16' E 005°30'0 0.0
2018-Jun-09 05:55N 59°16' E 005°30'0 0.0
2018-Jun-09 05:28N 59°16' E 005°30'0 0.0
2018-Jun-09 04:58N 59°16' E 005°30'0 0.0
2018-Jun-09 04:25N 59°16' E 005°30'0 0.0
2018-Jun-09 03:49N 59°16' E 005°30'0 0.0
2018-Jun-09 03:28N 59°16' E 005°30'0 0.0
2018-Jun-09 02:58N 59°16' E 005°30'0 0.0
2018-Jun-09 02:28N 59°16' E 005°30'0 0.0
2018-Jun-09 01:52N 59°16' E 005°30'0 0.0
2018-Jun-09 01:25N 59°16' E 005°30'0 0.0
2018-Jun-09 00:43N 59°16' E 005°30'0 0.0
2018-Jun-09 00:22N 59°16' E 005°30'0 0.0
2018-Jun-08 23:46N 59°16' E 005°30'0 0.0
2018-Jun-08 23:25N 59°16' E 005°30'0 0.0
2018-Jun-08 22:58N 59°16' E 005°30'0 0.3
2018-Jun-08 22:30N 59°16' E 005°30'  
Track history (hours):
 
Tides and Currents Weather Stations Pressure Air Temp Water Temp Dewpoint Dewpoint Depression Visibility Wind Speed Wind Dir Waves Ship Positions

Bayamo

Last reported at 2018-Jun-18 22:16 UTC. Time now 2018-Jun-19 02:58 UTC.
Position N 51°19' E 004°18'.

Length 88 m; draft 4.4 m.

Type: Ship (hazmat cat D). MMSI: 245669000.

Date/timePositionNaut miles runAvg speedWind from/ knotsBaromVisibWave heightAir tempDewpointWater temp
2018-Jun-18 22:16N 51°19' E 004°18'7 3.2
2018-Jun-18 20:06N 51°22' E 004°09'1 9.9
2018-Jun-18 20:00N 51°22' E 004°07'6 8.6
2018-Jun-18 19:17N 51°26' E 003°59'3 9.3
2018-Jun-18 18:58N 51°24' E 003°57'5 9.8
2018-Jun-18 18:31N 51°21' E 003°52'5 9.7
2018-Jun-18 18:01N 51°22' E 003°44'4 8.0
2018-Jun-18 17:30N 51°26' E 003°41'4 7.9
2018-Jun-18 16:59N 51°25' E 003°35'5 9.2
2018-Jun-18 16:30N 51°25' E 003°28'511.3
2018-Jun-18 16:00N 51°24' E 003°19'1113.6
2018-Jun-18 15:12N 51°24' E 003°01'314.0
2018-Jun-18 15:00N 51°23' E 002°57'710.2
2018-Jun-18 14:17N 51°21' E 002°46'2 6.6
2018-Jun-18 14:00N 51°20' E 002°43'3 6.2
2018-Jun-18 13:31N 51°17' E 002°41'5 9.4
2018-Jun-18 13:00N 51°13' E 002°38'510.7
2018-Jun-18 12:30N 51°09' E 002°33'5 9.5
2018-Jun-18 12:00N 51°05' E 002°29'5 5.0
2018-Jun-18 10:58N 51°03' E 002°21'3 7.1
2018-Jun-18 10:29N 51°02' E 002°16'0 0.0
2018-Jun-17 14:15N 51°02' E 002°16'0 1.0
2018-Jun-17 14:00N 51°02' E 002°16'4 7.1
2018-Jun-17 13:29N 51°03' E 002°21'1 1.7
2018-Jun-17 13:00N 51°04' E 002°21'713.1
2018-Jun-17 12:30N 51°03' E 002°11'712.5
2018-Jun-17 11:58N 51°02' E 002°00'511.3
2018-Jun-17 11:30N 51°02' E 001°52'5 9.9
2018-Jun-17 11:00N 51°04' E 001°44'612.3
2018-Jun-17 10:31N 51°09' E 001°40'713.6
2018-Jun-17 10:01N 51°16' E 001°39'714.9
2018-Jun-17 09:30N 51°23' E 001°43'713.1
2018-Jun-17 09:00N 51°30' E 001°45'612.5
2018-Jun-17 08:30N 51°36' E 001°45'1011.9
2018-Jun-17 07:37N 51°47' E 001°44'211.3
2018-Jun-17 07:27N 51°48' E 001°44'510.9
2018-Jun-17 07:00N 51°53' E 001°44'510.1
2018-Jun-17 06:30N 51°58' E 001°45'5 9.5
2018-Jun-17 06:00N 52°03' E 001°47'5 9.3
2018-Jun-17 05:30N 52°07' E 001°48'41 9.2
2018-Jun-17 01:04N 52°48' E 001°50'112.4
2018-Jun-17 01:00N 52°49' E 001°49'612.3
2018-Jun-17 00:31N 52°52' E 001°40'612.7
2018-Jun-17 00:01N 52°57' E 001°32'612.7
2018-Jun-16 23:31N 53°02' E 001°27'713.2
2018-Jun-16 23:00N 53°08' E 001°22'7613.5
2018-Jun-16 17:21N 54°09' E 000°05'513.8
2018-Jun-16 16:58N 54°14' W 000°00'613.4
2018-Jun-16 16:30N 54°18' W 000°07'613.1
2018-Jun-16 16:01N 54°23' W 000°14'713.0
2018-Jun-16 15:30N 54°28' W 000°21'  
2018-Jun-13 18:10N 54°28' W 000°15'211.3
2018-Jun-13 18:01N 54°27' W 000°13'611.1
2018-Jun-13 17:30N 54°22' W 000°07'510.6
2018-Jun-13 17:00N 54°18' W 000°02'610.6
2018-Jun-13 16:24N 54°13' E 000°05'8311.2
2018-Jun-13 09:01N 53°05' E 001°25'110.4
2018-Jun-13 08:55N 53°04' E 001°25'4 9.9
2018-Jun-13 08:29N 53°00' E 001°29'4 9.2
2018-Jun-13 08:00N 52°57' E 001°34'4 8.6
2018-Jun-13 07:30N 52°54' E 001°39'4 8.2
2018-Jun-13 06:59N 52°52' E 001°45'41 9.7
2018-Jun-13 02:46N 52°11' E 001°56'312.9
2018-Jun-13 02:30N 52°08' E 001°54'713.2
2018-Jun-13 02:01N 52°02' E 001°51'713.3
2018-Jun-13 01:30N 51°55' E 001°49'712.8
2018-Jun-13 00:59N 51°49' E 001°49'2311.9
2018-Jun-12 23:05N 51°26' E 001°47'111.9
2018-Jun-12 23:00N 51°25' E 001°46'611.9
2018-Jun-12 22:30N 51°19' E 001°44'611.8
2018-Jun-12 22:00N 51°14' E 001°40'611.1
2018-Jun-12 21:30N 51°10' E 001°35'510.8
2018-Jun-12 21:00N 51°06' E 001°40'5 9.5
2018-Jun-12 20:27N 51°03' E 001°47'5 9.7
2018-Jun-12 19:59N 51°02' E 001°55'713.6
2018-Jun-12 19:29N 51°03' E 002°05'913.7
2018-Jun-12 18:49N 51°04' E 002°19'2 3.6
2018-Jun-12 18:24N 51°03' E 002°21'0 0.4
2018-Jun-12 17:59N 51°03' E 002°21'3 0.2
2018-Jun-11 22:29N 51°02' E 002°16'4 4.0
2018-Jun-11 21:35N 51°03' E 002°21'1 8.0
2018-Jun-11 21:26N 51°04' E 002°23'410.0
2018-Jun-11 20:59N 51°06' E 002°29'3 6.6
2018-Jun-11 20:27N 51°08' E 002°33'510.1
2018-Jun-11 20:00N 51°12' E 002°37'712.4
2018-Jun-11 19:27N 51°18' E 002°42'711.3
2018-Jun-11 18:49N 51°25' E 002°46'413.2
2018-Jun-11 18:30N 51°26' E 002°52'913.5
2018-Jun-11 17:49N 51°31' E 003°05'413.4
2018-Jun-11 17:29N 51°35' E 003°10'713.1
2018-Jun-11 17:00N 51°41' E 003°11'612.7
2018-Jun-11 16:30N 51°47' E 003°15'2010.1
2018-Jun-11 14:28N 52°04' E 003°34'510.9
2018-Jun-11 13:59N 52°04' E 003°43'510.7
2018-Jun-11 13:30N 52°03' E 003°51'5 9.7
2018-Jun-11 13:00N 52°01' E 003°59'611.6
2018-Jun-11 12:30N 51°58' E 004°07'3 6.1
2018-Jun-11 12:01N 51°57' E 004°11'0 0.0
2018-Jun-11 02:55N 51°57' E 004°11'0 0.1
2018-Jun-11 02:30N 51°57' E 004°11'2 4.1
2018-Jun-11 02:01N 51°58' E 004°08'510.5
2018-Jun-11 01:30N 51°60' E 004°00'510.2
2018-Jun-11 00:58N 52°00' E 003°51'4 7.5
2018-Jun-11 00:30N 52°03' E 003°47'610.7
2018-Jun-10 23:58N 52°08' E 003°46'510.5
2018-Jun-10 23:28N 52°13' E 003°47'38011.7
2018-Jun-09 14:59N 58°30' E 005°11'611.9
2018-Jun-09 14:30N 58°36' E 005°12'612.0
2018-Jun-09 14:01N 58°42' E 005°13'611.9
2018-Jun-09 13:30N 58°48' E 005°15'611.8
2018-Jun-09 13:00N 58°53' E 005°16'611.3
2018-Jun-09 12:30N 58°59' E 005°18'510.9
2018-Jun-09 12:00N 59°04' E 005°20'510.1
2018-Jun-09 11:30N 59°08' E 005°27'5 9.8
2018-Jun-09 11:00N 59°12' E 005°32'5 7.7
2018-Jun-09 10:25N 59°16' E 005°30'0 0.0
2018-Jun-09 09:58N 59°16' E 005°30'0 0.0
2018-Jun-09 09:25N 59°16' E 005°30'0 0.0
2018-Jun-09 08:58N 59°16' E 005°30'0 0.0
2018-Jun-09 08:22N 59°16' E 005°30'0 0.0
2018-Jun-09 07:49N 59°16' E 005°30'0 0.0
2018-Jun-09 07:25N 59°16' E 005°30'0 0.0
2018-Jun-09 06:55N 59°16' E 005°30'0 0.0
2018-Jun-09 06:28N 59°16' E 005°30'0 0.0
2018-Jun-09 05:55N 59°16' E 005°30'0 0.0
2018-Jun-09 05:28N 59°16' E 005°30'0 0.0
2018-Jun-09 04:58N 59°16' E 005°30'0 0.0
2018-Jun-09 04:25N 59°16' E 005°30'0 0.0
2018-Jun-09 03:49N 59°16' E 005°30'0 0.0
2018-Jun-09 03:28N 59°16' E 005°30'0 0.0
2018-Jun-09 02:58N 59°16' E 005°30'0 0.0
2018-Jun-09 02:28N 59°16' E 005°30'0 0.0
2018-Jun-09 01:52N 59°16' E 005°30'0 0.0
2018-Jun-09 01:25N 59°16' E 005°30'0 0.0
2018-Jun-09 00:43N 59°16' E 005°30'0 0.0
2018-Jun-09 00:22N 59°16' E 005°30'0 0.0
2018-Jun-08 23:46N 59°16' E 005°30'0 0.0
2018-Jun-08 23:25N 59°16' E 005°30'0 0.0
2018-Jun-08 22:58N 59°16' E 005°30'0 0.3
2018-Jun-08 22:30N 59°16' E 005°30'  

Dump ship's entire track history